sensor_id;sensor_type;location;lat;lon;timestamp;pressure;altitude;pressure_sealevel;temperature;humidity
5380;BME280;2713;42.680;23.310;2024-02-04T00:02:05;95484.44;;;9.44;60.36
5380;BME280;2713;42.680;23.310;2024-02-04T00:04:34;95479.56;;;9.33;60.82
5380;BME280;2713;42.680;23.310;2024-02-04T00:07:01;95470.47;;;9.29;61.04
5380;BME280;2713;42.680;23.310;2024-02-04T00:09:28;95484.44;;;9.28;61.53
5380;BME280;2713;42.680;23.310;2024-02-04T00:11:54;95483.63;;;9.27;61.32
5380;BME280;2713;42.680;23.310;2024-02-04T00:14:21;95481.50;;;9.23;61.48
5380;BME280;2713;42.680;23.310;2024-02-04T00:16:48;95482.31;;;9.23;61.98
5380;BME280;2713;42.680;23.310;2024-02-04T00:19:15;95475.19;;;9.17;61.98
5380;BME280;2713;42.680;23.310;2024-02-04T00:21:43;95481.66;;;9.29;61.74
5380;BME280;2713;42.680;23.310;2024-02-04T00:24:09;95477.13;;;9.23;62.02
5380;BME280;2713;42.680;23.310;2024-02-04T00:26:36;95478.75;;;9.24;61.52
5380;BME280;2713;42.680;23.310;2024-02-04T00:29:03;95474.34;;;9.25;61.98
5380;BME280;2713;42.680;23.310;2024-02-04T00:31:30;95473.88;;;9.21;62.26
5380;BME280;2713;42.680;23.310;2024-02-04T00:33:57;95475.00;;;9.18;62.07
5380;BME280;2713;42.680;23.310;2024-02-04T00:36:24;95479.88;;;9.22;62.06
5380;BME280;2713;42.680;23.310;2024-02-04T00:38:52;95477.13;;;9.31;62.33
5380;BME280;2713;42.680;23.310;2024-02-04T00:41:19;95469.34;;;9.23;61.82
5380;BME280;2713;42.680;23.310;2024-02-04T00:43:45;95459.28;;;9.20;62.55
5380;BME280;2713;42.680;23.310;2024-02-04T00:46:12;95458.31;;;9.29;62.71
5380;BME280;2713;42.680;23.310;2024-02-04T00:48:39;95461.53;;;9.15;63.13
5380;BME280;2713;42.680;23.310;2024-02-04T00:51:06;95462.22;;;9.17;63.46
5380;BME280;2713;42.680;23.310;2024-02-04T00:53:32;95456.69;;;9.20;62.85
5380;BME280;2713;42.680;23.310;2024-02-04T00:56:02;95467.38;;;9.25;63.11
5380;BME280;2713;42.680;23.310;2024-02-04T00:58:29;95464.31;;;9.22;63.46
5380;BME280;2713;42.680;23.310;2024-02-04T01:00:56;95463.19;;;9.24;63.24
5380;BME280;2713;42.680;23.310;2024-02-04T01:03:23;95449.72;;;9.21;63.11
5380;BME280;2713;42.680;23.310;2024-02-04T01:05:50;95475.53;;;9.38;62.74
5380;BME280;2713;42.680;23.310;2024-02-04T01:08:17;95467.41;;;9.33;63.14
5380;BME280;2713;42.680;23.310;2024-02-04T01:10:44;95464.31;;;9.30;63.63
5380;BME280;2713;42.680;23.310;2024-02-04T01:13:12;95474.22;;;9.34;63.47
5380;BME280;2713;42.680;23.310;2024-02-04T01:15:39;95469.03;;;9.34;63.62
5380;BME280;2713;42.680;23.310;2024-02-04T01:18:05;95469.03;;;9.34;63.77
5380;BME280;2713;42.680;23.310;2024-02-04T01:20:32;95474.53;;;9.47;63.55
5380;BME280;2713;42.680;23.310;2024-02-04T01:22:59;95472.13;;;9.38;63.85
5380;BME280;2713;42.680;23.310;2024-02-04T01:25:26;95469.69;;;9.44;63.62
5380;BME280;2713;42.680;23.310;2024-02-04T01:27:52;95458.78;;;9.49;63.92
5380;BME280;2713;42.680;23.310;2024-02-04T01:30:21;95458.66;;;9.50;63.84
5380;BME280;2713;42.680;23.310;2024-02-04T01:32:48;95446.97;;;9.46;64.18
5380;BME280;2713;42.680;23.310;2024-02-04T01:35:15;95451.50;;;9.36;64.39
5380;BME280;2713;42.680;23.310;2024-02-04T01:37:42;95450.84;;;9.42;64.29
5380;BME280;2713;42.680;23.310;2024-02-04T01:40:10;95450.88;;;9.50;63.94
5380;BME280;2713;42.680;23.310;2024-02-04T01:42:37;95435.31;;;9.34;64.60
5380;BME280;2713;42.680;23.310;2024-02-04T01:45:04;95446.34;;;9.44;64.60
5380;BME280;2713;42.680;23.310;2024-02-04T01:47:34;95436.28;;;9.41;64.66
5380;BME280;2713;42.680;23.310;2024-02-04T01:50:02;95423.78;;;9.53;64.09
5380;BME280;2713;42.680;23.310;2024-02-04T01:52:30;95433.47;;;9.59;64.25
5380;BME280;2713;42.680;23.310;2024-02-04T01:54:59;95423.28;;;9.49;64.29
5380;BME280;2713;42.680;23.310;2024-02-04T01:57:27;95433.19;;;9.54;64.49
5380;BME280;2713;42.680;23.310;2024-02-04T01:59:55;95429.09;;;9.59;64.93
5380;BME280;2713;42.680;23.310;2024-02-04T02:02:23;95419.72;;;9.58;64.90
5380;BME280;2713;42.680;23.310;2024-02-04T02:04:51;95433.19;;;9.62;64.87
5380;BME280;2713;42.680;23.310;2024-02-04T02:07:18;95435.16;;;9.52;65.18
5380;BME280;2713;42.680;23.310;2024-02-04T02:09:46;95434.81;;;9.55;65.11
5380;BME280;2713;42.680;23.310;2024-02-04T02:12:17;95427.19;;;9.53;64.91
5380;BME280;2713;42.680;23.310;2024-02-04T02:14:48;95432.53;;;9.60;65.20
5380;BME280;2713;42.680;23.310;2024-02-04T02:17:21;95429.09;;;9.59;65.28
5380;BME280;2713;42.680;23.310;2024-02-04T02:19:56;95425.69;;;9.59;65.11
5380;BME280;2713;42.680;23.310;2024-02-04T02:22:30;95422.63;;;9.63;64.82
5380;BME280;2713;42.680;23.310;2024-02-04T02:25:06;95426.19;;;9.62;64.94
5380;BME280;2713;42.680;23.310;2024-02-04T02:27:34;95419.88;;;9.65;65.06
5380;BME280;2713;42.680;23.310;2024-02-04T02:30:00;95421.97;;;9.69;64.88
5380;BME280;2713;42.680;23.310;2024-02-04T02:32:28;95426.38;;;9.69;64.84
5380;BME280;2713;42.680;23.310;2024-02-04T02:34:55;95413.53;;;9.67;64.96
5380;BME280;2713;42.680;23.310;2024-02-04T02:37:26;95423.44;;;9.72;64.80
5380;BME280;2713;42.680;23.310;2024-02-04T02:39:58;95420.84;;;9.72;64.38
5380;BME280;2713;42.680;23.310;2024-02-04T02:42:29;95416.47;;;9.64;64.82
5380;BME280;2713;42.680;23.310;2024-02-04T02:44:57;95412.56;;;9.68;64.37
5380;BME280;2713;42.680;23.310;2024-02-04T02:47:26;95417.44;;;9.72;64.50
5380;BME280;2713;42.680;23.310;2024-02-04T02:49:54;95413.38;;;9.69;64.62
5380;BME280;2713;42.680;23.310;2024-02-04T02:52:21;95409.47;;;9.73;64.63
5380;BME280;2713;42.680;23.310;2024-02-04T02:54:48;95413.53;;;9.76;64.22
5380;BME280;2713;42.680;23.310;2024-02-04T02:57:14;95404.59;;;9.78;63.91
5380;BME280;2713;42.680;23.310;2024-02-04T02:59:43;95405.41;;;9.79;63.68
5380;BME280;2713;42.680;23.310;2024-02-04T03:02:10;95411.09;;;9.82;63.65
5380;BME280;2713;42.680;23.310;2024-02-04T03:04:36;95410.59;;;9.79;63.73
5380;BME280;2713;42.680;23.310;2024-02-04T03:07:03;95409.78;;;9.78;63.87
5380;BME280;2713;42.680;23.310;2024-02-04T03:09:31;95406.03;;;9.81;63.70
5380;BME280;2713;42.680;23.310;2024-02-04T03:11:58;95404.94;;;9.75;64.06
5380;BME280;2713;42.680;23.310;2024-02-04T03:14:25;95413.84;;;9.81;63.89
5380;BME280;2713;42.680;23.310;2024-02-04T03:16:53;95394.84;;;9.88;63.79
5380;BME280;2713;42.680;23.310;2024-02-04T03:19:20;95402.44;;;9.98;63.11
5380;BME280;2713;42.680;23.310;2024-02-04T03:21:47;95396.59;;;9.96;63.31
5380;BME280;2713;42.680;23.310;2024-02-04T03:24:14;95395.94;;;9.94;63.66
5380;BME280;2713;42.680;23.310;2024-02-04T03:26:41;95391.22;;;10.05;63.47
5380;BME280;2713;42.680;23.310;2024-02-04T03:29:08;95387.66;;;10.06;63.34
5380;BME280;2713;42.680;23.310;2024-02-04T03:31:35;95389.25;;;10.07;63.30
5380;BME280;2713;42.680;23.310;2024-02-04T03:34:03;95381.38;;;9.93;63.60
5380;BME280;2713;42.680;23.310;2024-02-04T03:36:30;95387.53;;;9.92;63.39
5380;BME280;2713;42.680;23.310;2024-02-04T03:38:57;95379.59;;;9.85;63.91
5380;BME280;2713;42.680;23.310;2024-02-04T03:41:24;95375.56;;;9.83;64.02
5380;BME280;2713;42.680;23.310;2024-02-04T03:43:51;95363.34;;;9.83;64.06
5380;BME280;2713;42.680;23.310;2024-02-04T03:46:18;95357.06;;;9.78;64.21
5380;BME280;2713;42.680;23.310;2024-02-04T03:48:45;95353.34;;;9.72;64.28
5380;BME280;2713;42.680;23.310;2024-02-04T03:51:16;95356.09;;;9.71;64.31
5380;BME280;2713;42.680;23.310;2024-02-04T03:53:43;95354.81;;;9.66;64.60
5380;BME280;2713;42.680;23.310;2024-02-04T03:56:10;95360.63;;;9.77;64.30
5380;BME280;2713;42.680;23.310;2024-02-04T03:58:37;95355.13;;;9.72;64.55
5380;BME280;2713;42.680;23.310;2024-02-04T04:01:04;95372.50;;;9.71;65.05
5380;BME280;2713;42.680;23.310;2024-02-04T04:03:30;95371.00;;;9.77;64.90
5380;BME280;2713;42.680;23.310;2024-02-04T04:05:57;95371.00;;;9.77;64.91
5380;BME280;2713;42.680;23.310;2024-02-04T04:08:25;95392.44;;;9.71;65.37
5380;BME280;2713;42.680;23.310;2024-02-04T04:10:52;95381.88;;;9.80;65.10
5380;BME280;2713;42.680;23.310;2024-02-04T04:13:19;95381.84;;;9.88;65.18
5380;BME280;2713;42.680;23.310;2024-02-04T04:15:46;95390.78;;;9.86;65.62
5380;BME280;2713;42.680;23.310;2024-02-04T04:18:11;95382.47;;;9.90;65.24
5380;BME280;2713;42.680;23.310;2024-02-04T04:20:38;95378.75;;;9.93;65.26
5380;BME280;2713;42.680;23.310;2024-02-04T04:23:05;95366.28;;;9.88;65.44
5380;BME280;2713;42.680;23.310;2024-02-04T04:25:33;95354.09;;;9.89;65.00
5380;BME280;2713;42.680;23.310;2024-02-04T04:28:00;95374.84;;;9.97;65.08
5380;BME280;2713;42.680;23.310;2024-02-04T04:30:27;95382.34;;;9.92;65.08
5380;BME280;2713;42.680;23.310;2024-02-04T04:32:54;95384.25;;;9.98;64.99
5380;BME280;2713;42.680;23.310;2024-02-04T04:35:21;95379.41;;;9.95;64.95
5380;BME280;2713;42.680;23.310;2024-02-04T04:37:48;95385.56;;;9.94;65.28
5380;BME280;2713;42.680;23.310;2024-02-04T04:40:15;95374.84;;;9.97;65.72
5380;BME280;2713;42.680;23.310;2024-02-04T04:42:43;95382.63;;;9.97;65.74
5380;BME280;2713;42.680;23.310;2024-02-04T04:45:10;95382.00;;;9.95;65.89
5380;BME280;2713;42.680;23.310;2024-02-04T04:47:37;95379.66;;;10.08;65.77
5380;BME280;2713;42.680;23.310;2024-02-04T04:50:05;95385.53;;;10.02;66.02
5380;BME280;2713;42.680;23.310;2024-02-04T04:52:32;95377.41;;;10.05;65.76
5380;BME280;2713;42.680;23.310;2024-02-04T04:54:59;95390.06;;;10.08;65.93
5380;BME280;2713;42.680;23.310;2024-02-04T04:57:26;95386.50;;;10.09;65.75
5380;BME280;2713;42.680;23.310;2024-02-04T04:59:54;95385.50;;;10.18;65.05
5380;BME280;2713;42.680;23.310;2024-02-04T05:02:21;95382.09;;;10.17;65.05
5380;BME280;2713;42.680;23.310;2024-02-04T05:04:48;95381.78;;;10.12;65.20
5380;BME280;2713;42.680;23.310;2024-02-04T05:07:15;95381.25;;;10.25;64.74
5380;BME280;2713;42.680;23.310;2024-02-04T05:09:41;95374.78;;;10.21;64.73
5380;BME280;2713;42.680;23.310;2024-02-04T05:12:08;95377.41;;;10.13;65.14
5380;BME280;2713;42.680;23.310;2024-02-04T05:14:35;95345.63;;;10.03;64.87
5380;BME280;2713;42.680;23.310;2024-02-04T05:17:04;95369.44;;;10.14;65.29
5380;BME280;2713;42.680;23.310;2024-02-04T05:19:31;95381.25;;;10.25;64.95
5380;BME280;2713;42.680;23.310;2024-02-04T05:21:58;95388.38;;;10.31;64.88
5380;BME280;2713;42.680;23.310;2024-02-04T05:24:24;95384.13;;;10.38;64.55
5380;BME280;2713;42.680;23.310;2024-02-04T05:26:51;95374.53;;;10.39;64.27
5380;BME280;2713;42.680;23.310;2024-02-04T05:29:18;95376.97;;;10.40;64.17
5380;BME280;2713;42.680;23.310;2024-02-04T05:31:45;95363.88;;;10.26;64.21
5380;BME280;2713;42.680;23.310;2024-02-04T05:34:13;95384.13;;;10.38;63.86
5380;BME280;2713;42.680;23.310;2024-02-04T05:36:40;95387.59;;;10.31;64.31
5380;BME280;2713;42.680;23.310;2024-02-04T05:39:10;95383.69;;;10.27;64.21
5380;BME280;2713;42.680;23.310;2024-02-04T05:41:37;95371.81;;;10.32;63.82
5380;BME280;2713;42.680;23.310;2024-02-04T05:44:04;95385.13;;;10.29;63.61
5380;BME280;2713;42.680;23.310;2024-02-04T05:46:31;95381.59;;;10.22;63.33
5380;BME280;2713;42.680;23.310;2024-02-04T05:48:58;95392.31;;;10.19;63.05
5380;BME280;2713;42.680;23.310;2024-02-04T05:51:27;95396.03;;;10.25;62.95
5380;BME280;2713;42.680;23.310;2024-02-04T05:53:54;95390.38;;;10.13;63.18
5380;BME280;2713;42.680;23.310;2024-02-04T05:56:21;95388.59;;;10.13;62.84
5380;BME280;2713;42.680;23.310;2024-02-04T05:58:47;95400.63;;;10.14;63.14
5380;BME280;2713;42.680;23.310;2024-02-04T06:01:15;95380.00;;;10.13;62.46
5380;BME280;2713;42.680;23.310;2024-02-04T06:03:42;95399.91;;;10.29;62.11
5380;BME280;2713;42.680;23.310;2024-02-04T06:06:13;95404.28;;;10.36;62.03
5380;BME280;2713;42.680;23.310;2024-02-04T06:08:42;95416.16;;;10.31;62.38
5380;BME280;2713;42.680;23.310;2024-02-04T06:11:09;95405.59;;;10.24;62.63
5380;BME280;2713;42.680;23.310;2024-02-04T06:13:35;95404.28;;;10.36;62.56
5380;BME280;2713;42.680;23.310;2024-02-04T06:16:02;95414.22;;;10.25;62.97
5380;BME280;2713;42.680;23.310;2024-02-04T06:18:29;95421.50;;;10.29;62.68
5380;BME280;2713;42.680;23.310;2024-02-04T06:20:56;95422.97;;;10.32;62.62
5380;BME280;2713;42.680;23.310;2024-02-04T06:23:23;95412.91;;;10.29;62.42
5380;BME280;2713;42.680;23.310;2024-02-04T06:25:51;95433.88;;;10.27;62.16
5380;BME280;2713;42.680;23.310;2024-02-04T06:28:18;95444.91;;;10.29;62.23
5380;BME280;2713;42.680;23.310;2024-02-04T06:30:44;95438.22;;;10.35;62.05
5380;BME280;2713;42.680;23.310;2024-02-04T06:33:11;95447.47;;;10.37;62.12
5380;BME280;2713;42.680;23.310;2024-02-04T06:35:38;95438.75;;;10.22;62.75
5380;BME280;2713;42.680;23.310;2024-02-04T06:38:05;95452.22;;;10.26;62.67
5380;BME280;2713;42.680;23.310;2024-02-04T06:40:32;95441.94;;;10.40;62.47
5380;BME280;2713;42.680;23.310;2024-02-04T06:43:00;95452.13;;;10.50;62.19
5380;BME280;2713;42.680;23.310;2024-02-04T06:45:26;95453.28;;;10.47;61.98
5380;BME280;2713;42.680;23.310;2024-02-04T06:47:53;95453.31;;;10.39;62.35
5380;BME280;2713;42.680;23.310;2024-02-04T06:50:20;95450.03;;;10.45;62.38
5380;BME280;2713;42.680;23.310;2024-02-04T06:52:47;95438.19;;;10.43;62.55
5380;BME280;2713;42.680;23.310;2024-02-04T06:55:14;95433.47;;;10.38;62.80
5380;BME280;2713;42.680;23.310;2024-02-04T06:57:41;95454.63;;;10.35;62.86
5380;BME280;2713;42.680;23.310;2024-02-04T07:00:10;95442.75;;;10.41;62.79
5380;BME280;2713;42.680;23.310;2024-02-04T07:02:38;95440.31;;;10.39;62.56
5380;BME280;2713;42.680;23.310;2024-02-04T07:05:05;95444.22;;;10.35;62.94
5380;BME280;2713;42.680;23.310;2024-02-04T07:07:32;95451.53;;;10.32;63.01
5380;BME280;2713;42.680;23.310;2024-02-04T07:09:59;95447.00;;;10.34;63.01
5380;BME280;2713;42.680;23.310;2024-02-04T07:12:26;95446.81;;;10.35;63.35
5380;BME280;2713;42.680;23.310;2024-02-04T07:14:52;95453.47;;;10.38;63.32
5380;BME280;2713;42.680;23.310;2024-02-04T07:17:21;95450.06;;;10.37;63.53
5380;BME280;2713;42.680;23.310;2024-02-04T07:19:47;95454.75;;;10.42;62.86
5380;BME280;2713;42.680;23.310;2024-02-04T07:22:14;95449.53;;;10.42;63.11
5380;BME280;2713;42.680;23.310;2024-02-04T07:24:41;95441.59;;;10.43;63.16
5380;BME280;2713;42.680;23.310;2024-02-04T07:27:08;95448.72;;;10.49;63.04
5380;BME280;2713;42.680;23.310;2024-02-04T07:29:35;95458.41;;;10.63;62.71
5380;BME280;2713;42.680;23.310;2024-02-04T07:32:01;95450.25;;;10.66;62.58
5380;BME280;2713;42.680;23.310;2024-02-04T07:34:30;95450.88;;;10.68;62.33
5380;BME280;2713;42.680;23.310;2024-02-04T07:36:56;95450.84;;;10.77;62.22
5380;BME280;2713;42.680;23.310;2024-02-04T07:39:23;95451.03;;;10.75;61.98
5380;BME280;2713;42.680;23.310;2024-02-04T07:41:50;95446.34;;;10.71;61.88
5380;BME280;2713;42.680;23.310;2024-02-04T07:44:19;95448.44;;;10.75;61.56
5380;BME280;2713;42.680;23.310;2024-02-04T07:46:46;95458.38;;;10.72;61.71
5380;BME280;2713;42.680;23.310;2024-02-04T07:49:12;95455.78;;;10.72;61.69
5380;BME280;2713;42.680;23.310;2024-02-04T07:51:40;95459.94;;;10.81;61.06
5380;BME280;2713;42.680;23.310;2024-02-04T07:54:07;95472.38;;;10.93;60.70
5380;BME280;2713;42.680;23.310;2024-02-04T07:56:34;95460.78;;;11.04;60.00
5380;BME280;2713;42.680;23.310;2024-02-04T07:59:01;95461.72;;;11.11;59.80
5380;BME280;2713;42.680;23.310;2024-02-04T08:01:29;95463.09;;;11.22;59.44
5380;BME280;2713;42.680;23.310;2024-02-04T08:03:56;95465.19;;;11.26;58.84
5380;BME280;2713;42.680;23.310;2024-02-04T08:06:22;95457.16;;;11.36;58.34
5380;BME280;2713;42.680;23.310;2024-02-04T08:08:50;95463.69;;;11.32;58.58
5380;BME280;2713;42.680;23.310;2024-02-04T08:11:17;95462.28;;;11.21;58.81
5380;BME280;2713;42.680;23.310;2024-02-04T08:13:44;95457.09;;;11.21;58.83
5380;BME280;2713;42.680;23.310;2024-02-04T08:16:11;95459.06;;;11.19;58.85
5380;BME280;2713;42.680;23.310;2024-02-04T08:18:38;95464.91;;;11.44;58.58
5380;BME280;2713;42.680;23.310;2024-02-04T08:21:05;95457.25;;;11.88;56.66
5380;BME280;2713;42.680;23.310;2024-02-04T08:23:32;95458.09;;;12.32;56.38
5380;BME280;2713;42.680;23.310;2024-02-04T08:26:00;95457.38;;;12.89;54.18
5380;BME280;2713;42.680;23.310;2024-02-04T08:28:27;95453.81;;;12.75;54.08
5380;BME280;2713;42.680;23.310;2024-02-04T08:30:54;95438.13;;;12.25;55.17
5380;BME280;2713;42.680;23.310;2024-02-04T08:33:21;95451.94;;;11.96;56.15
5380;BME280;2713;42.680;23.310;2024-02-04T08:35:48;95448.88;;;11.92;56.08
5380;BME280;2713;42.680;23.310;2024-02-04T08:38:15;95449.41;;;12.02;56.30
5380;BME280;2713;42.680;23.310;2024-02-04T08:40:42;95449.97;;;11.98;56.32
5380;BME280;2713;42.680;23.310;2024-02-04T08:43:10;95445.34;;;11.71;57.19
5380;BME280;2713;42.680;23.310;2024-02-04T08:45:37;95435.31;;;11.59;57.02
5380;BME280;2713;42.680;23.310;2024-02-04T08:48:04;95445.53;;;11.46;57.42
5380;BME280;2713;42.680;23.310;2024-02-04T08:50:31;95446.63;;;11.75;56.71
5380;BME280;2713;42.680;23.310;2024-02-04T08:52:58;95432.06;;;11.80;56.70
5380;BME280;2713;42.680;23.310;2024-02-04T08:55:24;95450.47;;;11.56;57.44
5380;BME280;2713;42.680;23.310;2024-02-04T08:57:51;95447.78;;;11.49;57.69
5380;BME280;2713;42.680;23.310;2024-02-04T09:00:20;95432.22;;;11.41;57.90
5380;BME280;2713;42.680;23.310;2024-02-04T09:02:48;95462.63;;;11.41;57.90
5380;BME280;2713;42.680;23.310;2024-02-04T09:05:15;95463.56;;;11.48;57.87
5380;BME280;2713;42.680;23.310;2024-02-04T09:07:43;95456.41;;;11.50;57.77
5380;BME280;2713;42.680;23.310;2024-02-04T09:10:10;95466.00;;;11.49;57.93
5380;BME280;2713;42.680;23.310;2024-02-04T09:12:38;95466.00;;;11.27;58.49
5380;BME280;2713;42.680;23.310;2024-02-04T09:15:05;95441.38;;;11.14;58.54
5380;BME280;2713;42.680;23.310;2024-02-04T09:17:33;95471.03;;;11.28;58.69
5380;BME280;2713;42.680;23.310;2024-02-04T09:20:00;95464.19;;;11.27;58.94
5380;BME280;2713;42.680;23.310;2024-02-04T09:22:27;95476.84;;;11.30;58.56
5380;BME280;2713;42.680;23.310;2024-02-04T09:24:54;95479.75;;;11.35;58.72
5380;BME280;2713;42.680;23.310;2024-02-04T09:27:21;95486.63;;;11.28;59.04
5380;BME280;2713;42.680;23.310;2024-02-04T09:29:48;95497.16;;;11.35;58.93
5380;BME280;2713;42.680;23.310;2024-02-04T09:32:14;95503.34;;;11.34;58.96
5380;BME280;2713;42.680;23.310;2024-02-04T09:34:43;95486.84;;;11.27;59.69
5380;BME280;2713;42.680;23.310;2024-02-04T09:37:09;95498.13;;;11.34;59.87
5380;BME280;2713;42.680;23.310;2024-02-04T09:39:36;95493.09;;;11.40;59.79
5380;BME280;2713;42.680;23.310;2024-02-04T09:42:03;95491.44;;;11.39;60.09
5380;BME280;2713;42.680;23.310;2024-02-04T09:44:30;95480.38;;;11.37;60.11
5380;BME280;2713;42.680;23.310;2024-02-04T09:46:58;95475.66;;;11.41;60.05
5380;BME280;2713;42.680;23.310;2024-02-04T09:49:27;95483.00;;;11.60;60.25
5380;BME280;2713;42.680;23.310;2024-02-04T09:51:57;95480.16;;;11.69;59.41
5380;BME280;2713;42.680;23.310;2024-02-04T09:54:27;95471.88;;;11.66;59.45
5380;BME280;2713;42.680;23.310;2024-02-04T09:56:55;95479.31;;;11.77;59.63
5380;BME280;2713;42.680;23.310;2024-02-04T09:59:22;95460.53;;;11.82;59.51
5380;BME280;2713;42.680;23.310;2024-02-04T10:01:48;95466.03;;;11.87;59.54
5380;BME280;2713;42.680;23.310;2024-02-04T10:04:16;95443.47;;;11.79;59.75
5380;BME280;2713;42.680;23.310;2024-02-04T10:06:43;95464.03;;;11.74;60.16
5380;BME280;2713;42.680;23.310;2024-02-04T10:09:11;95470.72;;;11.68;60.92
5380;BME280;2713;42.680;23.310;2024-02-04T10:11:38;95472.03;;;11.64;60.91
5380;BME280;2713;42.680;23.310;2024-02-04T10:14:04;95467.09;;;11.78;60.87
5380;BME280;2713;42.680;23.310;2024-02-04T10:16:35;95475.94;;;11.91;60.35
5380;BME280;2713;42.680;23.310;2024-02-04T10:19:02;95478.44;;;11.85;60.54
5380;BME280;2713;42.680;23.310;2024-02-04T10:21:29;95486.88;;;11.87;60.89
5380;BME280;2713;42.680;23.310;2024-02-04T10:23:56;95488.41;;;11.96;60.75
5380;BME280;2713;42.680;23.310;2024-02-04T10:26:28;95487.34;;;12.05;60.49
5380;BME280;2713;42.680;23.310;2024-02-04T10:28:57;95485.63;;;11.97;60.59
5380;BME280;2713;42.680;23.310;2024-02-04T10:31:25;95482.13;;;11.90;60.99
5380;BME280;2713;42.680;23.310;2024-02-04T10:33:52;95476.91;;;11.90;61.00
5380;BME280;2713;42.680;23.310;2024-02-04T10:36:19;95480.78;;;11.94;61.12
5380;BME280;2713;42.680;23.310;2024-02-04T10:38:46;95463.88;;;11.90;61.35
5380;BME280;2713;42.680;23.310;2024-02-04T10:41:15;95477.81;;;11.97;60.73
5380;BME280;2713;42.680;23.310;2024-02-04T10:43:44;95471.78;;;11.97;61.17
5380;BME280;2713;42.680;23.310;2024-02-04T10:46:13;95476.09;;;11.90;61.32
5380;BME280;2713;42.680;23.310;2024-02-04T10:48:42;95466.66;;;11.89;61.38
5380;BME280;2713;42.680;23.310;2024-02-04T10:51:14;95472.06;;;11.87;61.38
5380;BME280;2713;42.680;23.310;2024-02-04T10:53:41;95463.84;;;11.76;61.72
5380;BME280;2713;42.680;23.310;2024-02-04T10:56:13;95473.84;;;11.87;61.51
5380;BME280;2713;42.680;23.310;2024-02-04T10:58:43;95467.38;;;11.83;61.65
5380;BME280;2713;42.680;23.310;2024-02-04T11:01:11;95469.81;;;11.84;61.54
5380;BME280;2713;42.680;23.310;2024-02-04T11:03:39;95473.38;;;11.83;61.63
5380;BME280;2713;42.680;23.310;2024-02-04T11:06:07;95463.59;;;11.85;61.25
5380;BME280;2713;42.680;23.310;2024-02-04T11:08:35;95452.66;;;11.90;61.55
5380;BME280;2713;42.680;23.310;2024-02-04T11:11:02;95466.75;;;11.81;61.66
5380;BME280;2713;42.680;23.310;2024-02-04T11:13:29;95458.22;;;11.87;61.17
5380;BME280;2713;42.680;23.310;2024-02-04T11:15:58;95442.84;;;11.77;61.37
5380;BME280;2713;42.680;23.310;2024-02-04T11:18:42;95459.94;;;11.94;61.06
5380;BME280;2713;42.680;23.310;2024-02-04T11:21:28;95450.59;;;12.00;60.87
5380;BME280;2713;42.680;23.310;2024-02-04T11:24:09;95446.63;;;11.89;61.38
5380;BME280;2713;42.680;23.310;2024-02-04T11:26:40;95441.59;;;11.88;61.24
5380;BME280;2713;42.680;23.310;2024-02-04T11:29:08;95445.13;;;11.95;60.88
5380;BME280;2713;42.680;23.310;2024-02-04T11:31:39;95426.50;;;11.83;60.64
5380;BME280;2713;42.680;23.310;2024-02-04T11:34:06;95440.81;;;12.02;60.81
5380;BME280;2713;42.680;23.310;2024-02-04T11:36:37;95435.16;;;11.98;60.26
5380;BME280;2713;42.680;23.310;2024-02-04T11:39:11;95420.66;;;11.96;60.37
5380;BME280;2713;42.680;23.310;2024-02-04T11:41:45;95442.25;;;12.04;60.52
5380;BME280;2713;42.680;23.310;2024-02-04T11:44:19;95433.97;;;12.01;60.63
5380;BME280;2713;42.680;23.310;2024-02-04T11:46:47;95433.97;;;12.01;60.70
5380;BME280;2713;42.680;23.310;2024-02-04T11:49:15;95433.47;;;12.05;60.69
5380;BME280;2713;42.680;23.310;2024-02-04T11:51:45;95412.59;;;12.20;60.36
5380;BME280;2713;42.680;23.310;2024-02-04T11:54:11;95400.53;;;12.48;58.94
5380;BME280;2713;42.680;23.310;2024-02-04T11:56:41;95400.94;;;12.66;58.95
5380;BME280;2713;42.680;23.310;2024-02-04T11:59:08;95393.72;;;12.83;58.36
5380;BME280;2713;42.680;23.310;2024-02-04T12:01:36;95382.59;;;12.96;56.84
5380;BME280;2713;42.680;23.310;2024-02-04T12:04:10;95378.34;;;13.09;56.07
5380;BME280;2713;42.680;23.310;2024-02-04T12:06:38;95371.63;;;13.22;56.01
5380;BME280;2713;42.680;23.310;2024-02-04T12:09:05;95385.91;;;13.04;56.17
5380;BME280;2713;42.680;23.310;2024-02-04T12:11:34;95386.81;;;12.97;56.38
5380;BME280;2713;42.680;23.310;2024-02-04T12:14:03;95379.38;;;12.94;56.74
5380;BME280;2713;42.680;23.310;2024-02-04T12:16:31;95392.16;;;12.89;56.86
5380;BME280;2713;42.680;23.310;2024-02-04T12:18:59;95384.59;;;12.94;56.70
5380;BME280;2713;42.680;23.310;2024-02-04T12:21:27;95382.44;;;13.18;55.96
5380;BME280;2713;42.680;23.310;2024-02-04T12:23:54;95362.78;;;13.44;55.64
5380;BME280;2713;42.680;23.310;2024-02-04T12:26:22;95373.34;;;13.36;55.24
5380;BME280;2713;42.680;23.310;2024-02-04T12:28:50;95367.91;;;13.58;54.87
5380;BME280;2713;42.680;23.310;2024-02-04T12:31:17;95374.75;;;13.59;54.57
5380;BME280;2713;42.680;23.310;2024-02-04T12:33:52;95364.31;;;13.59;54.40
5380;BME280;2713;42.680;23.310;2024-02-04T12:36:20;95364.41;;;13.73;54.31
5380;BME280;2713;42.680;23.310;2024-02-04T12:38:52;95367.81;;;13.73;54.23
5380;BME280;2713;42.680;23.310;2024-02-04T12:41:19;95360.84;;;13.52;54.57
5380;BME280;2713;42.680;23.310;2024-02-04T12:43:49;95360.25;;;13.57;54.45
5380;BME280;2713;42.680;23.310;2024-02-04T12:46:16;95362.66;;;13.31;54.20
5380;BME280;2713;42.680;23.310;2024-02-04T12:48:43;95361.91;;;13.37;53.87
5380;BME280;2713;42.680;23.310;2024-02-04T12:51:10;95368.53;;;13.11;54.71
5380;BME280;2713;42.680;23.310;2024-02-04T12:53:37;95376.75;;;12.94;55.28
5380;BME280;2713;42.680;23.310;2024-02-04T12:56:05;95374.19;;;12.79;56.02
5380;BME280;2713;42.680;23.310;2024-02-04T12:58:42;95359.59;;;12.85;56.05
5380;BME280;2713;42.680;23.310;2024-02-04T13:01:09;95367.56;;;12.77;56.15
5380;BME280;2713;42.680;23.310;2024-02-04T13:03:36;95374.75;;;12.75;56.12
5380;BME280;2713;42.680;23.310;2024-02-04T13:06:03;95354.47;;;12.55;56.69
5380;BME280;2713;42.680;23.310;2024-02-04T13:08:30;95352.84;;;12.54;57.11
5380;BME280;2713;42.680;23.310;2024-02-04T13:10:57;95361.25;;;12.50;56.78
5380;BME280;2713;42.680;23.310;2024-02-04T13:13:25;95364.47;;;12.52;57.08
5380;BME280;2713;42.680;23.310;2024-02-04T13:15:54;95372.81;;;12.47;57.12
5380;BME280;2713;42.680;23.310;2024-02-04T13:18:21;95373.72;;;12.54;57.37